Bevis, Ohio
Current Conditions -  °F | °C
As of 11:55 AM on Saturday 25 Oct 2014 (Local Time) from KI67 Reporting Station
Overcast Overcast  
Wind Chill: 63°   Ceiling: 2200
Heat Index: 63°   Visibility: 10mi
Dew Point: 52°   Wind: 6mph
Humidity: 68%   Direction: 190°S
Pressure: 29.97"   Gusts: NA
Location:  39.2201°N, 84.6531°W
Report Text: KI67 251555Z AUTO 19005KT 10SM OVC022 17/11 A2997 RMK AO1
Loading
Personal Weather Stations






























Interactive Weather Map
Tropical Storm Tracking
New forecast layout! Learn more

10-Day Weather Forecast

Advertisements
Track Severe Weather on mobile